Time,TemperatureF,DewpointF,PressureIn,WindDirection,WindDirectionDegrees,WindSpeedMPH,WindSpeedGustMPH,Humidity,HourlyPrecipIn,Conditions,Clouds,dailyrainin,SoftwareType,DateUTC
2013-08-19 00:01:00,56.5,54.2,30.06,WSW,251,0.0,0.0,92,0.00,,---,0.00,VWS V14.01,2013-08-19 04:01:00,
2013-08-19 00:06:00,56.3,54.0,30.06,WSW,251,0.0,0.0,92,0.00,,---,0.00,VWS V14.01,2013-08-19 04:06:00,
2013-08-19 00:11:00,56.3,54.0,30.06,WSW,251,0.0,0.0,92,0.00,,---,0.00,VWS V14.01,2013-08-19 04:11:00,
2013-08-19 00:16:00,56.2,54.2,30.06,WSW,251,0.0,0.0,93,0.00,,---,0.00,VWS V14.01,2013-08-19 04:16:00,
2013-08-19 00:21:00,56.2,54.2,30.06,WSW,251,0.0,0.0,93,0.00,,---,0.00,VWS V14.01,2013-08-19 04:21:00,
2013-08-19 00:26:00,56.0,54.0,30.06,WSW,251,0.0,0.0,93,0.00,,---,0.00,VWS V14.01,2013-08-19 04:26:00,
2013-08-19 00:31:00,56.0,54.0,30.06,WSW,251,0.0,0.0,93,0.00,,---,0.00,VWS V14.01,2013-08-19 04:31:00,
2013-08-19 00:36:00,55.9,53.9,30.06,WSW,251,0.0,0.0,93,0.00,,---,0.00,VWS V14.01,2013-08-19 04:36:00,
2013-08-19 00:41:00,55.7,53.7,30.06,WSW,251,0.0,0.0,93,0.00,,---,0.00,VWS V14.01,2013-08-19 04:41:00,
2013-08-19 00:46:00,55.7,53.7,30.06,WSW,251,0.0,0.0,93,0.00,,---,0.00,VWS V14.01,2013-08-19 04:46:00,
2013-08-19 00:51:00,55.6,53.6,30.06,WSW,251,0.0,0.0,93,0.00,,---,0.00,VWS V14.01,2013-08-19 04:51:00,
2013-08-19 00:56:00,55.6,53.9,30.06,WSW,251,0.0,0.0,94,0.00,,---,0.00,VWS V14.01,2013-08-19 04:56:00,
2013-08-19 01:01:00,55.4,53.7,30.06,WSW,251,0.0,0.0,94,0.00,,---,0.00,VWS V14.01,2013-08-19 05:01:00,
2013-08-19 01:06:00,55.4,53.7,30.06,WSW,251,0.0,0.0,94,0.00,,---,0.00,VWS V14.01,2013-08-19 05:06:00,
2013-08-19 01:11:00,55.4,53.7,30.06,WSW,251,0.0,0.0,94,0.00,,---,0.00,VWS V14.01,2013-08-19 05:11:00,
2013-08-19 01:16:00,55.3,53.6,30.05,WSW,251,0.0,0.0,94,0.00,,---,0.00,VWS V14.01,2013-08-19 05:16:00,
2013-08-19 01:21:00,55.3,53.6,30.05,WSW,251,0.0,0.0,94,0.00,,---,0.00,VWS V14.01,2013-08-19 05:21:00,
2013-08-19 01:26:00,55.1,53.4,30.05,WSW,251,0.0,0.0,94,0.00,,---,0.00,VWS V14.01,2013-08-19 05:26:00,
2013-08-19 01:31:00,55.1,53.4,30.05,WSW,251,0.0,0.0,94,0.00,,---,0.00,VWS V14.01,2013-08-19 05:31:00,
2013-08-19 01:36:00,55.0,53.6,30.05,WSW,251,0.0,0.0,95,0.00,,---,0.00,VWS V14.01,2013-08-19 05:36:00,
2013-08-19 01:41:00,55.0,53.6,30.05,WSW,251,0.0,0.0,95,0.00,,---,0.00,VWS V14.01,2013-08-19 05:41:00,
2013-08-19 01:46:00,54.8,53.4,30.05,WSW,251,0.0,0.0,95,0.00,,---,0.00,VWS V14.01,2013-08-19 05:46:00,
2013-08-19 01:51:00,54.7,53.3,30.05,WSW,251,0.0,0.0,95,0.00,,---,0.00,VWS V14.01,2013-08-19 05:51:00,
2013-08-19 01:56:00,54.7,53.3,30.05,WSW,251,0.0,0.0,95,0.00,,---,0.00,VWS V14.01,2013-08-19 05:56:00,
2013-08-19 02:01:00,54.5,53.1,30.04,WSW,251,0.0,0.0,95,0.00,,---,0.00,VWS V14.01,2013-08-19 06:01:00,
2013-08-19 02:06:00,54.5,53.1,30.04,WSW,251,0.0,0.0,95,0.00,,---,0.00,VWS V14.01,2013-08-19 06:06:00,
2013-08-19 02:11:00,54.4,53.0,30.04,WSW,251,0.0,0.0,95,0.00,,---,0.00,VWS V14.01,2013-08-19 06:11:00,
2013-08-19 02:16:00,54.2,52.8,30.04,WSW,251,0.0,0.0,95,0.00,,---,0.00,VWS V14.01,2013-08-19 06:16:00,
2013-08-19 02:20:00,54.2,52.8,30.04,WSW,251,0.0,0.0,95,0.00,,---,0.00,VWS V14.01,2013-08-19 06:20:00,
2013-08-19 02:25:00,54.1,52.7,30.04,WSW,251,0.0,0.0,95,0.00,,---,0.00,VWS V14.01,2013-08-19 06:25:00,
2013-08-19 02:30:00,54.1,52.7,30.04,WSW,251,0.0,0.0,95,0.00,,---,0.00,VWS V14.01,2013-08-19 06:30:00,
2013-08-19 02:35:00,53.9,52.5,30.04,WSW,251,0.0,0.0,95,0.00,,---,0.00,VWS V14.01,2013-08-19 06:35:00,
2013-08-19 02:40:00,53.9,52.5,30.04,WSW,251,0.0,0.0,95,0.00,,---,0.00,VWS V14.01,2013-08-19 06:40:00,
2013-08-19 02:45:00,53.8,52.4,30.04,WSW,251,0.0,0.0,95,0.00,,---,0.00,VWS V14.01,2013-08-19 06:45:00,
2013-08-19 02:50:00,53.6,52.2,30.04,WSW,251,0.0,0.0,95,0.00,,---,0.00,VWS V14.01,2013-08-19 06:50:00,
2013-08-19 02:55:00,53.6,52.2,30.04,WSW,251,0.0,0.0,95,0.00,,---,0.00,VWS V14.01,2013-08-19 06:55:00,
2013-08-19 03:00:00,53.5,52.1,30.04,WSW,251,0.0,0.0,95,0.00,,---,0.00,VWS V14.01,2013-08-19 07:00:00,
2013-08-19 03:05:00,53.5,52.1,30.04,WSW,251,0.0,0.0,95,0.00,,---,0.00,VWS V14.01,2013-08-19 07:05:00,
2013-08-19 03:10:00,53.3,51.9,30.04,WSW,251,0.0,0.0,95,0.00,,---,0.00,VWS V14.01,2013-08-19 07:10:00,
2013-08-19 03:15:00,53.2,51.8,30.04,WSW,251,0.0,0.0,95,0.00,,---,0.00,VWS V14.01,2013-08-19 07:15:00,
2013-08-19 03:20:00,53.2,51.8,30.04,WSW,251,0.0,0.0,95,0.00,,---,0.00,VWS V14.01,2013-08-19 07:20:00,
2013-08-19 03:25:00,53.1,51.7,30.04,WSW,251,0.0,0.0,95,0.00,,---,0.00,VWS V14.01,2013-08-19 07:25:00,
2013-08-19 03:30:00,53.1,51.7,30.03,WSW,251,0.0,0.0,95,0.00,,---,0.00,VWS V14.01,2013-08-19 07:30:00,
2013-08-19 03:35:00,52.9,51.5,30.03,WSW,251,0.0,0.0,95,0.00,,---,0.00,VWS V14.01,2013-08-19 07:35:00,
2013-08-19 03:40:00,52.9,51.5,30.03,WSW,251,0.0,0.0,95,0.00,,---,0.00,VWS V14.01,2013-08-19 07:40:00,
2013-08-19 03:45:00,52.9,51.5,30.03,WSW,251,0.0,0.0,95,0.00,,---,0.00,VWS V14.01,2013-08-19 07:45:00,
2013-08-19 03:50:00,52.9,51.5,30.03,WSW,251,0.0,0.0,95,0.00,,---,0.00,VWS V14.01,2013-08-19 07:50:00,
2013-08-19 03:55:00,52.8,51.4,30.03,WSW,251,0.0,0.0,95,0.00,,---,0.00,VWS V14.01,2013-08-19 07:55:00,
2013-08-19 04:00:00,52.8,51.4,30.03,WSW,251,0.0,0.0,95,0.00,,---,0.00,VWS V14.01,2013-08-19 08:00:00,
2013-08-19 04:05:00,52.6,51.2,30.03,WSW,251,0.0,0.0,95,0.00,,---,0.00,VWS V14.01,2013-08-19 08:05:00,
2013-08-19 04:10:00,52.5,51.1,30.03,WSW,251,0.0,0.0,95,0.00,,---,0.00,VWS V14.01,2013-08-19 08:10:00,
2013-08-19 04:15:00,52.3,50.9,30.03,WSW,251,0.0,0.0,95,0.00,,---,0.00,VWS V14.01,2013-08-19 08:15:00,
2013-08-19 04:20:00,52.2,50.8,30.03,WSW,251,0.0,0.0,95,0.00,,---,0.00,VWS V14.01,2013-08-19 08:20:00,
2013-08-19 04:25:00,52.2,50.8,30.03,WSW,251,0.0,0.0,95,0.00,,---,0.00,VWS V14.01,2013-08-19 08:25:00,
2013-08-19 04:30:00,52.0,50.6,30.03,WSW,251,0.0,0.0,95,0.00,,---,0.00,VWS V14.01,2013-08-19 08:30:00,
2013-08-19 04:35:00,51.9,50.5,30.03,WSW,251,0.0,0.0,95,0.00,,---,0.00,VWS V14.01,2013-08-19 08:35:00,
2013-08-19 04:40:00,51.7,50.3,30.03,WSW,251,0.0,0.0,95,0.00,,---,0.00,VWS V14.01,2013-08-19 08:40:00,
2013-08-19 04:45:00,51.6,50.2,30.03,WSW,251,0.0,0.0,95,0.00,,---,0.00,VWS V14.01,2013-08-19 08:45:00,
2013-08-19 04:50:00,51.6,50.2,30.03,WSW,251,0.0,0.0,95,0.00,,---,0.00,VWS V14.01,2013-08-19 08:50:00,
2013-08-19 04:55:00,51.4,50.0,30.03,WSW,251,0.0,0.0,95,0.00,,---,0.00,VWS V14.01,2013-08-19 08:55:00,
2013-08-19 05:00:00,51.3,49.9,30.03,WSW,251,0.0,0.0,95,0.00,,---,0.00,VWS V14.01,2013-08-19 09:00:00,
2013-08-19 05:05:00,51.1,49.7,30.03,WSW,251,0.0,0.0,95,0.00,,---,0.00,VWS V14.01,2013-08-19 09:05:00,
2013-08-19 05:10:00,51.1,49.7,30.03,WSW,251,0.0,0.0,95,0.00,,---,0.00,VWS V14.01,2013-08-19 09:10:00,
2013-08-19 05:15:00,51.0,49.6,30.03,WSW,251,0.0,0.0,95,0.00,,---,0.00,VWS V14.01,2013-08-19 09:15:00,
2013-08-19 05:20:00,51.0,49.6,30.03,WSW,251,0.0,0.0,95,0.00,,---,0.00,VWS V14.01,2013-08-19 09:20:00,
2013-08-19 05:25:00,51.0,49.6,30.03,WSW,251,0.0,0.0,95,0.00,,---,0.00,VWS V14.01,2013-08-19 09:25:00,
2013-08-19 05:30:00,50.8,49.4,30.03,WSW,251,0.0,0.0,95,0.00,,---,0.00,VWS V14.01,2013-08-19 09:30:00,
2013-08-19 05:35:00,50.8,49.4,30.03,WSW,251,0.0,0.0,95,0.00,,---,0.00,VWS V14.01,2013-08-19 09:35:00,
2013-08-19 05:40:00,50.8,49.4,30.03,WSW,251,0.0,0.0,95,0.00,,---,0.00,VWS V14.01,2013-08-19 09:40:00,
2013-08-19 05:45:00,50.7,49.3,30.03,WSW,251,0.0,0.0,95,0.00,,---,0.00,VWS V14.01,2013-08-19 09:45:00,
2013-08-19 05:50:00,50.5,49.1,30.03,WSW,251,0.0,0.0,95,0.00,,---,0.00,VWS V14.01,2013-08-19 09:50:00,
2013-08-19 05:55:00,50.5,49.1,30.03,WSW,251,0.0,0.0,95,0.00,,---,0.00,VWS V14.01,2013-08-19 09:55:00,
2013-08-19 06:00:00,50.5,49.1,30.03,WSW,251,0.0,0.0,95,0.00,,---,0.00,VWS V14.01,2013-08-19 10:00:00,
2013-08-19 06:05:00,50.4,49.0,30.03,WSW,251,0.0,0.0,95,0.00,,---,0.00,VWS V14.01,2013-08-19 10:05:00,
2013-08-19 06:10:00,50.5,49.1,30.03,WSW,251,0.0,0.0,95,0.00,,---,0.00,VWS V14.01,2013-08-19 10:10:00,
2013-08-19 06:15:00,50.5,49.1,30.04,WSW,251,0.0,0.0,95,0.00,,---,0.00,VWS V14.01,2013-08-19 10:15:00,
2013-08-19 06:20:00,50.5,49.1,30.04,WSW,251,0.0,0.0,95,0.00,,---,0.00,VWS V14.01,2013-08-19 10:20:00,
2013-08-19 06:25:00,50.5,49.1,30.04,WSW,251,0.0,0.0,95,0.00,,---,0.00,VWS V14.01,2013-08-19 10:25:00,
2013-08-19 06:30:00,50.5,49.1,30.04,WSW,251,0.0,0.0,95,0.00,,---,0.00,VWS V14.01,2013-08-19 10:30:00,
2013-08-19 06:35:00,50.5,49.1,30.04,WSW,251,0.0,0.0,95,0.00,,---,0.00,VWS V14.01,2013-08-19 10:35:00,
2013-08-19 06:40:00,50.5,49.1,30.04,WSW,251,0.0,0.0,95,0.00,,---,0.00,VWS V14.01,2013-08-19 10:40:00,
2013-08-19 06:45:00,50.5,49.1,30.04,WSW,251,0.0,0.0,95,0.00,,---,0.00,VWS V14.01,2013-08-19 10:45:00,
2013-08-19 06:50:00,50.7,49.3,30.04,WSW,251,0.0,0.0,95,0.00,,---,0.00,VWS V14.01,2013-08-19 10:50:00,
2013-08-19 06:55:00,50.7,49.3,30.04,WSW,251,0.0,0.0,95,0.00,,---,0.00,VWS V14.01,2013-08-19 10:55:00,
2013-08-19 07:00:00,50.8,49.4,30.04,WSW,251,0.0,0.0,95,0.00,,---,0.00,VWS V14.01,2013-08-19 11:00:00,
2013-08-19 07:05:00,51.0,49.6,30.04,WSW,251,0.0,0.0,95,0.00,,---,0.00,VWS V14.01,2013-08-19 11:05:00,
2013-08-19 07:10:00,51.1,49.7,30.04,WSW,251,0.0,0.0,95,0.00,,---,0.00,VWS V14.01,2013-08-19 11:10:00,
2013-08-19 07:15:00,51.6,50.2,30.05,WSW,251,1.0,1.0,95,0.00,,---,0.00,VWS V14.01,2013-08-19 11:15:00,
2013-08-19 07:20:00,52.0,50.6,30.05,WSW,251,0.0,0.0,95,0.00,,---,0.00,VWS V14.01,2013-08-19 11:20:00,
2013-08-19 07:25:00,52.2,50.8,30.05,WSW,251,0.0,0.0,95,0.00,,---,0.00,VWS V14.01,2013-08-19 11:25:00,
2013-08-19 07:30:00,52.5,51.1,30.04,WSW,251,0.0,0.0,95,0.00,,---,0.00,VWS V14.01,2013-08-19 11:30:00,
2013-08-19 07:35:00,52.8,51.4,30.04,WSW,251,0.0,0.0,95,0.00,,---,0.00,VWS V14.01,2013-08-19 11:35:00,
2013-08-19 07:40:00,53.1,51.7,30.04,WSW,251,0.0,0.0,95,0.00,,---,0.00,VWS V14.01,2013-08-19 11:40:00,
2013-08-19 07:45:00,53.5,52.1,30.04,WSW,251,0.0,0.0,95,0.00,,---,0.00,VWS V14.01,2013-08-19 11:45:00,
2013-08-19 07:50:00,53.9,52.5,30.04,WSW,251,0.0,0.0,95,0.00,,---,0.00,VWS V14.01,2013-08-19 11:50:00,
2013-08-19 07:55:00,54.4,53.0,30.04,WSW,251,0.0,0.0,95,0.00,,---,0.00,VWS V14.01,2013-08-19 11:55:00,
2013-08-19 08:00:00,54.8,53.4,30.03,WSW,251,0.0,0.0,95,0.00,,---,0.00,VWS V14.01,2013-08-19 12:00:00,
2013-08-19 08:05:00,55.3,53.9,30.03,WSW,251,0.0,0.0,95,0.00,,---,0.00,VWS V14.01,2013-08-19 12:05:00,
2013-08-19 08:10:00,55.9,54.5,30.03,WSW,251,0.0,0.0,95,0.00,,---,0.00,VWS V14.01,2013-08-19 12:10:00,
2013-08-19 08:15:00,56.5,55.1,30.04,WSW,251,0.0,0.0,95,0.00,,---,0.00,VWS V14.01,2013-08-19 12:15:00,
2013-08-19 08:20:00,57.0,55.6,30.04,WSW,251,0.0,0.0,95,0.00,,---,0.00,VWS V14.01,2013-08-19 12:20:00,
2013-08-19 08:25:00,57.5,56.1,30.04,WSW,251,0.0,0.0,95,0.00,,---,0.00,VWS V14.01,2013-08-19 12:25:00,
2013-08-19 08:30:00,58.0,56.6,30.03,WSW,250,0.0,0.0,95,0.00,,---,0.00,VWS V14.01,2013-08-19 12:30:00,
2013-08-19 08:35:00,58.3,56.9,30.03,WSW,248,0.0,0.0,95,0.00,,---,0.00,VWS V14.01,2013-08-19 12:35:00,
2013-08-19 08:40:00,58.6,57.2,30.03,WSW,248,0.0,0.0,95,0.00,,---,0.00,VWS V14.01,2013-08-19 12:40:00,
2013-08-19 08:45:00,58.9,57.5,30.02,WSW,248,1.0,2.0,95,0.00,,---,0.00,VWS V14.01,2013-08-19 12:45:00,
2013-08-19 08:49:00,59.2,57.8,30.02,WSW,248,0.0,0.0,95,0.00,,---,0.00,VWS V14.01,2013-08-19 12:49:00,
2013-08-19 08:54:00,59.6,58.2,30.02,WSW,248,0.0,0.0,95,0.00,,---,0.00,VWS V14.01,2013-08-19 12:54:00,
2013-08-19 08:59:00,59.9,58.5,30.02,WSW,248,0.0,0.0,95,0.00,,---,0.00,VWS V14.01,2013-08-19 12:59:00,
2013-08-19 09:04:00,60.2,58.8,30.02,WSW,248,0.0,0.0,95,0.00,,---,0.00,VWS V14.01,2013-08-19 13:04:00,
2013-08-19 09:09:00,60.7,59.3,30.02,WSW,248,0.0,0.0,95,0.00,,---,0.00,VWS V14.01,2013-08-19 13:09:00,
2013-08-19 09:14:00,61.0,59.6,30.02,WSW,248,0.0,0.0,95,0.00,,---,0.00,VWS V14.01,2013-08-19 13:14:00,
2013-08-19 09:19:00,61.6,60.2,30.02,SSW,205,0.0,0.0,95,0.00,,---,0.00,VWS V14.01,2013-08-19 13:19:00,
2013-08-19 09:24:00,62.0,60.6,30.02,SSW,205,0.0,0.0,95,0.00,,---,0.00,VWS V14.01,2013-08-19 13:24:00,
2013-08-19 09:29:00,62.4,61.0,30.02,SSW,205,0.0,0.0,95,0.00,,---,0.00,VWS V14.01,2013-08-19 13:29:00,
2013-08-19 09:34:00,63.1,61.7,30.02,SSW,205,0.0,0.0,95,0.00,,---,0.00,VWS V14.01,2013-08-19 13:34:00,
2013-08-19 09:39:00,63.2,61.8,30.02,SSW,205,0.0,0.0,95,0.00,,---,0.00,VWS V14.01,2013-08-19 13:39:00,
2013-08-19 09:44:00,63.7,62.2,30.01,SW,219,6.0,6.0,95,0.00,,---,0.00,VWS V14.01,2013-08-19 13:44:00,
2013-08-19 09:49:00,64.2,62.7,30.01,WSW,241,7.0,7.0,95,0.00,,---,0.00,VWS V14.01,2013-08-19 13:49:00,
2013-08-19 09:54:00,64.7,63.2,30.01,NW,325,0.0,0.0,95,0.00,,---,0.00,VWS V14.01,2013-08-19 13:54:00,
2013-08-19 09:59:00,65.3,62.9,30.01,WNW,288,1.0,6.0,92,0.00,,---,0.00,VWS V14.01,2013-08-19 13:59:00,
2013-08-19 10:04:00,65.8,62.5,30.01,WSW,250,0.0,1.0,89,0.00,,---,0.00,VWS V14.01,2013-08-19 14:04:00,
2013-08-19 10:09:00,66.4,62.4,30.01,West,260,2.0,2.0,87,0.00,,---,0.00,VWS V14.01,2013-08-19 14:09:00,
2013-08-19 10:14:00,66.9,62.2,30.00,West,263,4.0,6.0,85,0.00,,---,0.00,VWS V14.01,2013-08-19 14:14:00,
2013-08-19 10:19:00,67.6,62.6,30.00,West,265,0.0,2.0,84,0.00,,---,0.00,VWS V14.01,2013-08-19 14:19:00,
2013-08-19 10:24:00,68.3,62.9,30.00,WSW,251,2.0,3.0,83,0.00,,---,0.00,VWS V14.01,2013-08-19 14:24:00,
2013-08-19 10:29:00,68.8,61.7,30.00,SW,236,0.0,1.0,78,0.00,,---,0.00,VWS V14.01,2013-08-19 14:29:00,
2013-08-19 10:34:00,69.1,62.0,30.00,WNW,284,0.0,0.0,78,0.00,,---,0.00,VWS V14.01,2013-08-19 14:34:00,
2013-08-19 10:39:00,69.6,62.1,30.00,ENE,68,1.0,3.0,77,0.00,,---,0.00,VWS V14.01,2013-08-19 14:39:00,
2013-08-19 10:44:00,70.3,62.4,30.00,WSW,244,0.0,0.0,76,0.00,,---,0.00,VWS V14.01,2013-08-19 14:44:00,
2013-08-19 10:49:00,71.1,62.4,30.00,North,359,5.0,6.0,74,0.00,,---,0.00,VWS V14.01,2013-08-19 14:49:00,
2013-08-19 10:54:00,71.8,61.9,30.00,NNW,337,5.0,7.0,71,0.00,,---,0.00,VWS V14.01,2013-08-19 14:54:00,
2013-08-19 10:59:00,72.5,62.6,30.00,NW,318,2.0,2.0,71,0.00,,---,0.00,VWS V14.01,2013-08-19 14:59:00,
2013-08-19 11:04:00,73.0,62.7,30.00,NNW,337,0.0,1.0,70,0.00,,---,0.00,VWS V14.01,2013-08-19 15:04:00,
2013-08-19 11:09:00,73.2,60.7,30.00,North,7,2.0,2.0,65,0.00,,---,0.00,VWS V14.01,2013-08-19 15:09:00,
2013-08-19 11:14:00,73.9,62.3,30.00,NW,304,1.0,2.0,67,0.00,,---,0.00,VWS V14.01,2013-08-19 15:14:00,
2013-08-19 11:19:00,74.2,63.4,30.00,WNW,284,3.0,6.0,69,0.00,,---,0.00,VWS V14.01,2013-08-19 15:19:00,
2013-08-19 11:24:00,74.6,62.9,30.00,South,169,3.0,3.0,67,0.00,,---,0.00,VWS V14.01,2013-08-19 15:24:00,
2013-08-19 11:29:00,74.9,61.9,29.99,WSW,237,6.0,6.0,64,0.00,,---,0.00,VWS V14.01,2013-08-19 15:29:00,
2013-08-19 11:34:00,75.1,62.5,29.99,West,275,0.0,0.0,65,0.00,,---,0.00,VWS V14.01,2013-08-19 15:34:00,
2013-08-19 11:39:00,75.4,62.4,29.99,NE,35,5.0,6.0,64,0.00,,---,0.00,VWS V14.01,2013-08-19 15:39:00,
2013-08-19 11:44:00,76.0,62.0,29.99,SW,230,3.0,3.0,62,0.00,,---,0.00,VWS V14.01,2013-08-19 15:44:00,
2013-08-19 11:49:00,76.3,62.8,29.99,SW,233,0.0,3.0,63,0.00,,---,0.00,VWS V14.01,2013-08-19 15:49:00,
2013-08-19 11:54:00,76.7,62.7,29.99,SW,223,1.0,6.0,62,0.00,,---,0.00,VWS V14.01,2013-08-19 15:54:00,
2013-08-19 11:59:00,77.0,62.5,29.98,South,181,2.0,2.0,61,0.00,,---,0.00,VWS V14.01,2013-08-19 15:59:00,
2013-08-19 12:04:00,77.0,61.6,29.98,West,264,5.0,5.0,59,0.00,,---,0.00,VWS V14.01,2013-08-19 16:04:00,
2013-08-19 12:09:00,77.2,62.7,29.98,NE,35,2.0,3.0,61,0.00,,---,0.00,VWS V14.01,2013-08-19 16:09:00,
2013-08-19 12:14:00,77.6,63.6,29.98,NNE,23,2.0,2.0,62,0.00,,---,0.00,VWS V14.01,2013-08-19 16:14:00,
2013-08-19 12:19:00,77.7,63.2,29.98,West,268,1.0,1.0,61,0.00,,---,0.00,VWS V14.01,2013-08-19 16:19:00,
2013-08-19 12:24:00,77.9,64.3,29.98,North,8,1.0,3.0,63,0.00,,---,0.00,VWS V14.01,2013-08-19 16:24:00,
2013-08-19 12:29:00,77.9,62.4,29.99,West,272,0.0,4.0,59,0.00,,---,0.00,VWS V14.01,2013-08-19 16:29:00,
2013-08-19 12:34:00,77.9,63.8,29.99,NW,323,0.0,0.0,62,0.00,,---,0.00,VWS V14.01,2013-08-19 16:34:00,
2013-08-19 12:39:00,78.1,64.5,29.99,WSW,257,5.0,5.0,63,0.00,,---,0.00,VWS V14.01,2013-08-19 16:39:00,
2013-08-19 12:44:00,78.1,63.6,29.98,WSW,248,11.0,11.0,61,0.00,,---,0.00,VWS V14.01,2013-08-19 16:44:00,
2013-08-19 12:49:00,77.7,62.2,29.98,ESE,110,2.0,7.0,59,0.00,,---,0.00,VWS V14.01,2013-08-19 16:49:00,
2013-08-19 12:54:00,77.7,63.2,29.98,WSW,239,2.0,6.0,61,0.00,,---,0.00,VWS V14.01,2013-08-19 16:54:00,
2013-08-19 12:59:00,77.6,62.6,29.97,WNW,292,1.0,1.0,60,0.00,,---,0.00,VWS V14.01,2013-08-19 16:59:00,
2013-08-19 13:04:00,77.9,62.9,29.97,WSW,239,4.0,6.0,60,0.00,,---,0.00,VWS V14.01,2013-08-19 17:04:00,
2013-08-19 13:09:00,78.1,63.6,29.97,West,263,1.0,2.0,61,0.00,,---,0.00,VWS V14.01,2013-08-19 17:09:00,
2013-08-19 13:14:00,78.3,63.3,29.97,NNW,344,5.0,6.0,60,0.00,,---,0.00,VWS V14.01,2013-08-19 17:14:00,
2013-08-19 13:19:00,78.6,64.5,29.97,SW,233,4.0,8.0,62,0.00,,---,0.00,VWS V14.01,2013-08-19 17:19:00,
2013-08-19 13:24:00,79.0,61.0,29.97,NW,315,3.0,8.0,54,0.00,,---,0.00,VWS V14.01,2013-08-19 17:24:00,
2013-08-19 13:29:00,79.4,61.8,29.97,West,263,4.0,6.0,55,0.00,,---,0.00,VWS V14.01,2013-08-19 17:29:00,
2013-08-19 13:34:00,79.9,65.3,29.97,NE,40,0.0,1.0,61,0.00,,---,0.00,VWS V14.01,2013-08-19 17:34:00,
2013-08-19 13:39:00,80.5,64.4,29.97,North,0,2.0,4.0,58,0.00,,---,0.00,VWS V14.01,2013-08-19 17:39:00,
2013-08-19 13:44:00,80.9,63.8,29.97,West,277,5.0,5.0,56,0.00,,---,0.00,VWS V14.01,2013-08-19 17:44:00,
2013-08-19 13:49:00,81.1,61.3,29.95,SW,217,1.0,4.0,51,0.00,,---,0.00,VWS V14.01,2013-08-19 17:49:00,
2013-08-19 13:54:00,81.4,65.7,29.95,NW,311,1.0,1.0,59,0.00,,---,0.00,VWS V14.01,2013-08-19 17:54:00,
2013-08-19 13:59:00,81.4,62.6,29.95,WSW,254,4.0,4.0,53,0.00,,---,0.00,VWS V14.01,2013-08-19 17:59:00,
2013-08-19 14:04:00,81.6,62.8,29.95,SW,224,0.0,0.0,53,0.00,,---,0.00,VWS V14.01,2013-08-19 18:04:00,
2013-08-19 14:09:00,81.4,65.2,29.95,SW,233,8.0,9.0,58,0.00,,---,0.00,VWS V14.01,2013-08-19 18:09:00,
2013-08-19 14:14:00,81.4,64.7,29.95,WSW,253,7.0,7.0,57,0.00,,---,0.00,VWS V14.01,2013-08-19 18:14:00,
2013-08-19 14:19:00,81.6,64.4,29.95,NNW,330,5.0,5.0,56,0.00,,---,0.00,VWS V14.01,2013-08-19 18:19:00,
2013-08-19 14:24:00,81.4,62.6,29.95,SW,226,0.0,2.0,53,0.00,,---,0.00,VWS V14.01,2013-08-19 18:24:00,
2013-08-19 14:29:00,81.6,64.4,29.95,WSW,244,5.0,10.0,56,0.00,,---,0.00,VWS V14.01,2013-08-19 18:29:00,
2013-08-19 14:34:00,81.6,61.7,29.94,SW,232,6.0,8.0,51,0.00,,---,0.00,VWS V14.01,2013-08-19 18:34:00,
2013-08-19 14:39:00,81.4,64.2,29.94,SW,232,11.0,11.0,56,0.00,,---,0.00,VWS V14.01,2013-08-19 18:39:00,
2013-08-19 14:43:00,81.1,62.9,29.94,West,270,7.0,8.0,54,0.00,,---,0.00,VWS V14.01,2013-08-19 18:43:00,
2013-08-19 14:48:00,81.1,61.3,29.94,SW,229,6.0,7.0,51,0.00,,---,0.00,VWS V14.01,2013-08-19 18:48:00,
2013-08-19 14:53:00,81.1,63.4,29.94,SW,223,7.0,7.0,55,0.00,,---,0.00,VWS V14.01,2013-08-19 18:53:00,
2013-08-19 14:58:00,80.7,64.6,29.94,SSW,202,7.0,7.0,58,0.00,,---,0.00,VWS V14.01,2013-08-19 18:58:00,
2013-08-19 15:03:00,80.5,63.4,29.94,WSW,241,0.0,0.0,56,0.00,,---,0.00,VWS V14.01,2013-08-19 19:03:00,
2013-08-19 15:08:00,80.5,60.7,29.94,SW,226,6.0,11.0,51,0.00,,---,0.00,VWS V14.01,2013-08-19 19:08:00,
2013-08-19 15:13:00,80.1,63.5,29.94,WSW,251,4.0,8.0,57,0.00,,---,0.00,VWS V14.01,2013-08-19 19:13:00,
2013-08-19 15:18:00,79.9,62.8,29.94,SW,232,2.0,12.0,56,0.00,,---,0.00,VWS V14.01,2013-08-19 19:18:00,
2013-08-19 15:23:00,79.8,62.7,29.94,SW,224,5.0,5.0,56,0.00,,---,0.00,VWS V14.01,2013-08-19 19:23:00,
2013-08-19 15:28:00,79.8,64.7,29.94,WSW,244,2.0,7.0,60,0.00,,---,0.00,VWS V14.01,2013-08-19 19:28:00,
2013-08-19 15:33:00,80.1,64.5,29.94,SW,236,3.0,6.0,59,0.00,,---,0.00,VWS V14.01,2013-08-19 19:33:00,
2013-08-19 15:38:00,80.3,64.2,29.94,West,270,17.0,17.0,58,0.00,,---,0.00,VWS V14.01,2013-08-19 19:38:00,
2013-08-19 15:43:00,80.5,64.9,29.94,SW,229,5.0,7.0,59,0.00,,---,0.00,VWS V14.01,2013-08-19 19:43:00,
2013-08-19 15:48:00,80.5,64.4,29.94,WSW,258,0.0,3.0,58,0.00,,---,0.00,VWS V14.01,2013-08-19 19:48:00,
2013-08-19 15:53:00,80.7,63.0,29.94,SW,234,5.0,5.0,55,0.00,,---,0.00,VWS V14.01,2013-08-19 19:53:00,
2013-08-19 15:58:00,80.7,63.6,29.94,SW,232,6.0,6.0,56,0.00,,---,0.00,VWS V14.01,2013-08-19 19:58:00,
2013-08-19 16:03:00,80.9,64.8,29.94,SW,233,5.0,8.0,58,0.00,,---,0.00,VWS V14.01,2013-08-19 20:03:00,
2013-08-19 16:08:00,81.1,65.4,29.94,West,264,7.0,7.0,59,0.00,,---,0.00,VWS V14.01,2013-08-19 20:08:00,
2013-08-19 16:13:00,81.1,65.4,29.94,WSW,241,2.0,5.0,59,0.00,,---,0.00,VWS V14.01,2013-08-19 20:13:00,
2013-08-19 16:18:00,81.2,65.0,29.94,WSW,253,7.0,7.0,58,0.00,,---,0.00,VWS V14.01,2013-08-19 20:18:00,
2013-08-19 16:23:00,81.4,66.2,29.94,WSW,253,2.0,6.0,60,0.00,,---,0.00,VWS V14.01,2013-08-19 20:23:00,
2013-08-19 16:28:00,81.4,65.7,29.94,NW,311,2.0,2.0,59,0.00,,---,0.00,VWS V14.01,2013-08-19 20:28:00,
2013-08-19 16:33:00,81.2,65.5,29.93,West,274,6.0,8.0,59,0.00,,---,0.00,VWS V14.01,2013-08-19 20:33:00,
2013-08-19 16:38:00,81.1,64.4,29.93,WSW,246,4.0,4.0,57,0.00,,---,0.00,VWS V14.01,2013-08-19 20:38:00,
2013-08-19 16:43:00,81.2,66.5,29.93,SW,230,2.0,3.0,61,0.00,,---,0.00,VWS V14.01,2013-08-19 20:43:00,
2013-08-19 16:48:00,81.2,66.0,29.93,WSW,256,3.0,4.0,60,0.00,,---,0.00,VWS V14.01,2013-08-19 20:48:00,
2013-08-19 16:53:00,81.1,64.9,29.93,WSW,243,7.0,11.0,58,0.00,,---,0.00,VWS V14.01,2013-08-19 20:53:00,
2013-08-19 16:58:00,80.9,65.7,29.93,West,277,5.0,5.0,60,0.00,,---,0.00,VWS V14.01,2013-08-19 20:58:00,
2013-08-19 17:03:00,80.7,65.1,29.93,WNW,299,1.0,3.0,59,0.00,,---,0.00,VWS V14.01,2013-08-19 21:03:00,
2013-08-19 17:08:00,80.5,64.4,29.93,WSW,256,2.0,2.0,58,0.00,,---,0.00,VWS V14.01,2013-08-19 21:08:00,
2013-08-19 17:13:00,80.1,63.5,29.93,NNW,339,0.0,1.0,57,0.00,,---,0.00,VWS V14.01,2013-08-19 21:13:00,
2013-08-19 17:18:00,79.9,66.2,29.94,WNW,302,2.0,2.0,63,0.00,,---,0.00,VWS V14.01,2013-08-19 21:18:00,
2013-08-19 17:23:00,79.8,63.7,29.94,SW,224,0.0,2.0,58,0.00,,---,0.00,VWS V14.01,2013-08-19 21:23:00,
2013-08-19 17:28:00,79.2,63.7,29.94,ENE,69,3.0,3.0,59,0.00,,---,0.00,VWS V14.01,2013-08-19 21:28:00,
2013-08-19 17:33:00,78.6,64.0,29.94,WNW,296,0.0,5.0,61,0.00,,---,0.00,VWS V14.01,2013-08-19 21:33:00,
2013-08-19 17:38:00,78.1,62.6,29.94,NW,316,3.0,3.0,59,0.00,,---,0.00,VWS V14.01,2013-08-19 21:38:00,
2013-08-19 17:43:00,77.4,62.4,29.94,NE,51,2.0,2.0,60,0.00,,---,0.00,VWS V14.01,2013-08-19 21:43:00,
2013-08-19 17:48:00,76.7,61.8,29.94,WNW,302,0.0,0.0,60,0.00,,---,0.00,VWS V14.01,2013-08-19 21:48:00,
2013-08-19 17:53:00,76.1,61.2,29.94,NW,311,0.0,0.0,60,0.00,,---,0.00,VWS V14.01,2013-08-19 21:53:00,
2013-08-19 17:58:00,75.6,61.7,29.94,NW,309,0.0,0.0,62,0.00,,---,0.00,VWS V14.01,2013-08-19 21:58:00,
2013-08-19 18:03:00,75.3,62.3,29.95,NW,308,0.0,0.0,64,0.00,,---,0.00,VWS V14.01,2013-08-19 22:03:00,
2013-08-19 18:08:00,74.7,62.6,29.95,NW,308,0.0,0.0,66,0.00,,---,0.00,VWS V14.01,2013-08-19 22:08:00,
2013-08-19 18:13:00,74.4,62.7,29.95,NW,311,1.0,2.0,67,0.00,,---,0.00,VWS V14.01,2013-08-19 22:13:00,
2013-08-19 18:18:00,74.0,62.8,29.95,WNW,295,0.0,2.0,68,0.00,,---,0.00,VWS V14.01,2013-08-19 22:18:00,
2013-08-19 18:23:00,73.7,62.1,29.95,West,261,0.0,0.0,67,0.00,,---,0.00,VWS V14.01,2013-08-19 22:23:00,
2013-08-19 18:28:00,73.5,62.7,29.95,West,261,0.0,0.0,69,0.00,,---,0.00,VWS V14.01,2013-08-19 22:28:00,
2013-08-19 18:33:00,73.0,63.0,29.95,West,261,1.0,1.0,71,0.00,,---,0.00,VWS V14.01,2013-08-19 22:33:00,
2013-08-19 18:38:00,72.7,63.2,29.95,West,261,0.0,0.0,72,0.00,,---,0.00,VWS V14.01,2013-08-19 22:38:00,
2013-08-19 18:43:00,72.3,62.8,29.95,West,261,0.0,0.0,72,0.00,,---,0.00,VWS V14.01,2013-08-19 22:43:00,
2013-08-19 18:48:00,72.1,62.6,29.96,West,261,0.0,0.0,72,0.00,,---,0.00,VWS V14.01,2013-08-19 22:48:00,
2013-08-19 18:53:00,72.0,62.5,29.96,West,261,0.0,0.0,72,0.00,,---,0.00,VWS V14.01,2013-08-19 22:53:00,
2013-08-19 18:58:00,71.8,62.7,29.96,West,261,0.0,0.0,73,0.00,,---,0.00,VWS V14.01,2013-08-19 22:58:00,
2013-08-19 19:03:00,71.5,62.8,29.96,West,261,0.0,1.0,74,0.00,,---,0.00,VWS V14.01,2013-08-19 23:03:00,
2013-08-19 19:08:00,71.3,62.6,29.96,West,261,0.0,0.0,74,0.00,,---,0.00,VWS V14.01,2013-08-19 23:08:00,
2013-08-19 19:13:00,70.9,62.2,29.96,West,261,0.0,0.0,74,0.00,,---,0.00,VWS V14.01,2013-08-19 23:13:00,
2013-08-19 19:18:00,70.8,62.5,29.96,West,261,0.0,0.0,75,0.00,,---,0.00,VWS V14.01,2013-08-19 23:18:00,
2013-08-19 19:23:00,70.6,62.3,29.96,West,261,0.0,0.0,75,0.00,,---,0.00,VWS V14.01,2013-08-19 23:23:00,
2013-08-19 19:28:00,70.4,62.5,29.96,West,261,0.0,0.0,76,0.00,,---,0.00,VWS V14.01,2013-08-19 23:28:00,
2013-08-19 19:33:00,70.3,62.4,29.97,West,261,0.0,0.0,76,0.00,,---,0.00,VWS V14.01,2013-08-19 23:33:00,
2013-08-19 19:38:00,70.1,62.6,29.97,West,261,0.0,0.0,77,0.00,,---,0.00,VWS V14.01,2013-08-19 23:38:00,
2013-08-19 19:43:00,69.8,62.6,29.97,West,261,0.0,0.0,78,0.00,,---,0.00,VWS V14.01,2013-08-19 23:43:00,
2013-08-19 19:48:00,69.4,62.2,29.97,West,261,0.0,0.0,78,0.00,,---,0.00,VWS V14.01,2013-08-19 23:48:00,
2013-08-19 19:53:00,69.1,62.3,29.97,West,261,0.0,0.0,79,0.00,,---,0.00,VWS V14.01,2013-08-19 23:53:00,
2013-08-19 19:58:00,68.8,62.0,29.97,West,261,0.0,0.0,79,0.00,,---,0.00,VWS V14.01,2013-08-19 23:58:00,
2013-08-19 20:03:00,68.4,62.0,29.97,West,261,0.0,0.0,80,0.00,,---,0.00,VWS V14.01,2013-08-20 00:03:00,
2013-08-19 20:08:00,68.1,61.7,29.97,West,261,0.0,0.0,80,0.00,,---,0.00,VWS V14.01,2013-08-20 00:08:00,
2013-08-19 20:13:00,67.6,61.6,29.97,West,261,0.0,0.0,81,0.00,,---,0.00,VWS V14.01,2013-08-20 00:13:00,
2013-08-19 20:18:00,67.3,61.3,29.96,West,261,0.0,0.0,81,0.00,,---,0.00,VWS V14.01,2013-08-20 00:18:00,
2013-08-19 20:23:00,66.9,60.9,29.96,West,261,0.0,0.0,81,0.00,,---,0.00,VWS V14.01,2013-08-20 00:23:00,
2013-08-19 20:28:00,66.6,60.9,29.96,West,261,0.0,0.0,82,0.00,,---,0.00,VWS V14.01,2013-08-20 00:28:00,
2013-08-19 20:33:00,66.3,60.7,29.97,West,261,0.0,0.0,82,0.00,,---,0.00,VWS V14.01,2013-08-20 00:33:00,
2013-08-19 20:38:00,66.0,60.3,29.97,West,261,0.0,0.0,82,0.00,,---,0.00,VWS V14.01,2013-08-20 00:38:00,
2013-08-19 20:43:00,65.6,60.3,29.97,West,261,0.0,0.0,83,0.00,,---,0.00,VWS V14.01,2013-08-20 00:43:00,
2013-08-19 20:48:00,65.3,60.3,29.97,West,261,0.0,0.0,84,0.00,,---,0.00,VWS V14.01,2013-08-20 00:48:00,
2013-08-19 20:53:00,65.0,59.7,29.97,West,261,0.0,0.0,83,0.00,,---,0.00,VWS V14.01,2013-08-20 00:53:00,
2013-08-19 20:58:00,64.7,59.8,29.97,West,261,0.0,0.0,84,0.00,,---,0.00,VWS V14.01,2013-08-20 00:58:00,
2013-08-19 21:03:00,64.3,59.4,29.98,West,261,0.0,0.0,84,0.00,,---,0.00,VWS V14.01,2013-08-20 01:03:00,
2013-08-19 21:08:00,64.2,59.6,29.98,West,261,0.0,0.0,85,0.00,,---,0.00,VWS V14.01,2013-08-20 01:08:00,
2013-08-19 21:13:00,63.9,59.3,29.98,West,261,0.0,0.0,85,0.00,,---,0.00,VWS V14.01,2013-08-20 01:13:00,
2013-08-19 21:18:00,63.5,59.2,29.98,West,261,0.0,0.0,86,0.00,,---,0.00,VWS V14.01,2013-08-20 01:18:00,
2013-08-19 21:23:00,63.4,59.2,29.98,West,261,0.0,0.0,86,0.00,,---,0.00,VWS V14.01,2013-08-20 01:23:00,
2013-08-19 21:28:00,63.1,58.8,29.98,West,261,0.0,0.0,86,0.00,,---,0.00,VWS V14.01,2013-08-20 01:28:00,
2013-08-19 21:33:00,62.9,58.7,29.98,West,261,0.0,0.0,86,0.00,,---,0.00,VWS V14.01,2013-08-20 01:33:00,
2013-08-19 21:38:00,62.6,58.4,29.98,West,261,0.0,0.0,86,0.00,,---,0.00,VWS V14.01,2013-08-20 01:38:00,
2013-08-19 21:43:00,62.3,58.1,29.98,West,261,0.0,0.0,86,0.00,,---,0.00,VWS V14.01,2013-08-20 01:43:00,
2013-08-19 21:48:00,62.1,57.9,29.98,West,261,0.0,0.0,86,0.00,,---,0.00,VWS V14.01,2013-08-20 01:48:00,
2013-08-19 21:53:00,62.0,58.1,29.98,West,261,0.0,0.0,87,0.00,,---,0.00,VWS V14.01,2013-08-20 01:53:00,
2013-08-19 21:58:00,61.8,57.9,29.98,West,261,0.0,0.0,87,0.00,,---,0.00,VWS V14.01,2013-08-20 01:58:00,
2013-08-19 22:03:00,61.5,57.9,29.98,West,261,0.0,0.0,88,0.00,,---,0.00,VWS V14.01,2013-08-20 02:03:00,
2013-08-19 22:08:00,61.3,57.7,29.98,West,261,0.0,0.0,88,0.00,,---,0.00,VWS V14.01,2013-08-20 02:08:00,
2013-08-19 22:13:00,61.2,57.6,29.98,West,261,0.0,0.0,88,0.00,,---,0.00,VWS V14.01,2013-08-20 02:13:00,
2013-08-19 22:18:00,61.0,57.4,29.97,West,261,0.0,0.0,88,0.00,,---,0.00,VWS V14.01,2013-08-20 02:18:00,
2013-08-19 22:23:00,60.9,57.3,29.97,West,261,0.0,0.0,88,0.00,,---,0.00,VWS V14.01,2013-08-20 02:23:00,
2013-08-19 22:28:00,60.7,57.4,29.97,West,261,0.0,0.0,89,0.00,,---,0.00,VWS V14.01,2013-08-20 02:28:00,
2013-08-19 22:33:00,60.5,57.2,29.97,West,261,0.0,0.0,89,0.00,,---,0.00,VWS V14.01,2013-08-20 02:33:00,
2013-08-19 22:38:00,60.4,57.2,29.97,West,261,0.0,0.0,89,0.00,,---,0.00,VWS V14.01,2013-08-20 02:38:00,
2013-08-19 22:43:00,60.2,56.6,29.97,West,261,0.0,0.0,88,0.00,,---,0.00,VWS V14.01,2013-08-20 02:43:00,
2013-08-19 22:48:00,60.1,56.5,29.98,West,261,0.0,0.0,88,0.00,,---,0.00,VWS V14.01,2013-08-20 02:48:00,
2013-08-19 22:53:00,59.9,56.3,29.98,West,261,0.0,0.0,88,0.00,,---,0.00,VWS V14.01,2013-08-20 02:53:00,
2013-08-19 22:58:00,59.8,56.2,29.98,West,261,0.0,0.0,88,0.00,,---,0.00,VWS V14.01,2013-08-20 02:58:00,
2013-08-19 23:03:00,59.6,56.0,29.97,West,261,0.0,0.0,88,0.00,,---,0.00,VWS V14.01,2013-08-20 03:03:00,
2013-08-19 23:08:00,59.5,56.0,29.97,West,261,0.0,0.0,88,0.00,,---,0.00,VWS V14.01,2013-08-20 03:08:00,
2013-08-19 23:13:00,59.3,56.1,29.97,West,261,0.0,0.0,89,0.00,,---,0.00,VWS V14.01,2013-08-20 03:13:00,
2013-08-19 23:18:00,59.3,56.1,29.97,West,261,0.0,0.0,89,0.00,,---,0.00,VWS V14.01,2013-08-20 03:18:00,
2013-08-19 23:23:00,59.2,56.0,29.97,West,261,0.0,0.0,89,0.00,,---,0.00,VWS V14.01,2013-08-20 03:23:00,
2013-08-19 23:28:00,59.0,55.8,29.97,West,261,0.0,0.0,89,0.00,,---,0.00,VWS V14.01,2013-08-20 03:28:00,
2013-08-19 23:33:00,58.9,55.7,29.97,West,261,0.0,0.0,89,0.00,,---,0.00,VWS V14.01,2013-08-20 03:33:00,
2013-08-19 23:38:00,58.9,55.7,29.97,West,261,0.0,0.0,89,0.00,,---,0.00,VWS V14.01,2013-08-20 03:38:00,
2013-08-19 23:42:00,58.7,55.5,29.97,West,261,0.0,0.0,89,0.00,,---,0.00,VWS V14.01,2013-08-20 03:42:00,
2013-08-19 23:47:00,58.6,55.4,29.97,West,261,0.0,0.0,89,0.00,,---,0.00,VWS V14.01,2013-08-20 03:47:00,
2013-08-19 23:52:00,58.4,55.2,29.97,West,261,0.0,0.0,89,0.00,,---,0.00,VWS V14.01,2013-08-20 03:52:00,
2013-08-19 23:57:00,58.3,55.1,29.97,West,261,0.0,0.0,89,0.00,,---,0.00,VWS V14.01,2013-08-20 03:57:00,